sensor_id;sensor_type;location;lat;lon;timestamp;P1;durP1;ratioP1;P2;durP2;ratioP2
72406;SDS011;60396;47.550;18.828;2023-04-03T00:00:58;8.00;;;3.33;;
72406;SDS011;60396;47.550;18.828;2023-04-03T00:03:26;10.07;;;3.80;;
72406;SDS011;60396;47.550;18.828;2023-04-03T00:05:54;8.05;;;3.50;;
72406;SDS011;60396;47.550;18.828;2023-04-03T00:08:22;8.00;;;3.20;;
72406;SDS011;60396;47.550;18.828;2023-04-03T00:10:50;7.65;;;3.15;;
72406;SDS011;60396;47.550;18.828;2023-04-03T00:13:17;7.97;;;3.13;;
72406;SDS011;60396;47.550;18.828;2023-04-03T00:15:45;8.45;;;3.62;;
72406;SDS011;60396;47.550;18.828;2023-04-03T00:18:13;7.72;;;3.08;;
72406;SDS011;60396;47.550;18.828;2023-04-03T00:20:40;8.52;;;3.30;;
72406;SDS011;60396;47.550;18.828;2023-04-03T00:23:08;9.48;;;3.30;;
72406;SDS011;60396;47.550;18.828;2023-04-03T00:25:36;8.80;;;3.70;;
72406;SDS011;60396;47.550;18.828;2023-04-03T00:28:04;9.45;;;3.70;;
72406;SDS011;60396;47.550;18.828;2023-04-03T00:30:32;8.23;;;3.70;;
72406;SDS011;60396;47.550;18.828;2023-04-03T00:33:00;8.85;;;3.55;;
72406;SDS011;60396;47.550;18.828;2023-04-03T00:35:28;7.12;;;2.60;;
72406;SDS011;60396;47.550;18.828;2023-04-03T00:37:56;7.67;;;3.00;;
72406;SDS011;60396;47.550;18.828;2023-04-03T00:40:24;7.10;;;2.65;;
72406;SDS011;60396;47.550;18.828;2023-04-03T00:42:58;7.62;;;2.75;;
72406;SDS011;60396;47.550;18.828;2023-04-03T00:45:36;8.18;;;2.72;;
72406;SDS011;60396;47.550;18.828;2023-04-03T00:48:05;7.85;;;2.70;;
72406;SDS011;60396;47.550;18.828;2023-04-03T00:50:36;7.70;;;2.70;;
72406;SDS011;60396;47.550;18.828;2023-04-03T00:53:06;7.32;;;2.62;;
72406;SDS011;60396;47.550;18.828;2023-04-03T00:55:35;7.00;;;2.58;;
72406;SDS011;60396;47.550;18.828;2023-04-03T00:58:04;6.03;;;2.28;;
72406;SDS011;60396;47.550;18.828;2023-04-03T01:00:35;7.22;;;2.70;;
72406;SDS011;60396;47.550;18.828;2023-04-03T01:03:05;8.00;;;2.60;;
72406;SDS011;60396;47.550;18.828;2023-04-03T01:05:34;7.18;;;2.47;;
72406;SDS011;60396;47.550;18.828;2023-04-03T01:08:02;7.78;;;2.62;;
72406;SDS011;60396;47.550;18.828;2023-04-03T01:10:30;7.85;;;2.53;;
72406;SDS011;60396;47.550;18.828;2023-04-03T01:12:58;7.45;;;2.47;;
72406;SDS011;60396;47.550;18.828;2023-04-03T01:15:27;7.10;;;2.53;;
72406;SDS011;60396;47.550;18.828;2023-04-03T01:18:00;9.13;;;2.92;;
72406;SDS011;60396;47.550;18.828;2023-04-03T01:25:37;6.62;;;2.47;;
72406;SDS011;60396;47.550;18.828;2023-04-03T01:28:08;7.10;;;2.00;;
72406;SDS011;60396;47.550;18.828;2023-04-03T01:30:48;6.35;;;1.98;;
72406;SDS011;60396;47.550;18.828;2023-04-03T01:33:20;6.60;;;2.20;;
72406;SDS011;60396;47.550;18.828;2023-04-03T01:35:47;6.62;;;2.40;;
72406;SDS011;60396;47.550;18.828;2023-04-03T01:38:16;7.97;;;2.17;;
72406;SDS011;60396;47.550;18.828;2023-04-03T01:40:44;6.93;;;2.20;;
72406;SDS011;60396;47.550;18.828;2023-04-03T01:43:12;6.25;;;2.47;;
72406;SDS011;60396;47.550;18.828;2023-04-03T01:45:40;6.20;;;2.12;;
72406;SDS011;60396;47.550;18.828;2023-04-03T01:48:08;6.78;;;2.20;;
72406;SDS011;60396;47.550;18.828;2023-04-03T01:50:36;9.18;;;2.10;;
72406;SDS011;60396;47.550;18.828;2023-04-03T01:53:04;7.57;;;2.47;;
72406;SDS011;60396;47.550;18.828;2023-04-03T01:55:32;8.10;;;2.75;;
72406;SDS011;60396;47.550;18.828;2023-04-03T01:58:00;7.18;;;2.60;;
72406;SDS011;60396;47.550;18.828;2023-04-03T02:00:28;9.90;;;2.40;;
72406;SDS011;60396;47.550;18.828;2023-04-03T02:02:56;6.75;;;2.35;;
72406;SDS011;60396;47.550;18.828;2023-04-03T02:05:25;6.97;;;2.30;;
72406;SDS011;60396;47.550;18.828;2023-04-03T02:07:52;6.90;;;2.17;;
72406;SDS011;60396;47.550;18.828;2023-04-03T02:10:20;6.78;;;2.12;;
72406;SDS011;60396;47.550;18.828;2023-04-03T02:12:48;7.82;;;2.60;;
72406;SDS011;60396;47.550;18.828;2023-04-03T02:15:15;6.85;;;2.53;;
72406;SDS011;60396;47.550;18.828;2023-04-03T02:17:43;5.23;;;1.93;;
72406;SDS011;60396;47.550;18.828;2023-04-03T02:20:12;7.07;;;2.45;;
72406;SDS011;60396;47.550;18.828;2023-04-03T02:22:39;6.65;;;2.30;;
72406;SDS011;60396;47.550;18.828;2023-04-03T02:25:07;7.40;;;2.33;;
72406;SDS011;60396;47.550;18.828;2023-04-03T02:27:35;7.12;;;2.28;;
72406;SDS011;60396;47.550;18.828;2023-04-03T02:30:04;7.80;;;2.53;;
72406;SDS011;60396;47.550;18.828;2023-04-03T02:32:32;7.47;;;2.42;;
72406;SDS011;60396;47.550;18.828;2023-04-03T02:35:02;7.78;;;2.58;;
72406;SDS011;60396;47.550;18.828;2023-04-03T02:37:29;6.40;;;2.47;;
72406;SDS011;60396;47.550;18.828;2023-04-03T02:39:58;6.68;;;2.33;;
72406;SDS011;60396;47.550;18.828;2023-04-03T02:42:27;7.50;;;2.93;;
72406;SDS011;60396;47.550;18.828;2023-04-03T02:44:55;8.23;;;2.80;;
72406;SDS011;60396;47.550;18.828;2023-04-03T02:47:26;7.82;;;2.72;;
72406;SDS011;60396;47.550;18.828;2023-04-03T02:49:54;6.25;;;2.35;;
72406;SDS011;60396;47.550;18.828;2023-04-03T02:52:22;7.28;;;2.58;;
72406;SDS011;60396;47.550;18.828;2023-04-03T02:54:50;8.07;;;2.50;;
72406;SDS011;60396;47.550;18.828;2023-04-03T02:57:18;7.70;;;2.75;;
72406;SDS011;60396;47.550;18.828;2023-04-03T02:59:47;8.52;;;3.03;;
72406;SDS011;60396;47.550;18.828;2023-04-03T03:02:15;6.95;;;2.40;;
72406;SDS011;60396;47.550;18.828;2023-04-03T03:04:42;6.93;;;2.50;;
72406;SDS011;60396;47.550;18.828;2023-04-03T03:07:10;9.33;;;3.33;;
72406;SDS011;60396;47.550;18.828;2023-04-03T03:09:38;7.78;;;2.83;;
72406;SDS011;60396;47.550;18.828;2023-04-03T03:12:05;7.12;;;2.80;;
72406;SDS011;60396;47.550;18.828;2023-04-03T03:14:33;8.95;;;3.45;;
72406;SDS011;60396;47.550;18.828;2023-04-03T03:17:01;7.82;;;2.80;;
72406;SDS011;60396;47.550;18.828;2023-04-03T03:19:28;8.23;;;2.80;;
72406;SDS011;60396;47.550;18.828;2023-04-03T03:21:56;7.05;;;2.90;;
72406;SDS011;60396;47.550;18.828;2023-04-03T03:24:24;6.97;;;2.78;;
72406;SDS011;60396;47.550;18.828;2023-04-03T03:26:53;6.62;;;2.42;;
72406;SDS011;60396;47.550;18.828;2023-04-03T03:29:20;6.87;;;2.58;;
72406;SDS011;60396;47.550;18.828;2023-04-03T03:31:48;7.20;;;2.90;;
72406;SDS011;60396;47.550;18.828;2023-04-03T03:34:16;8.57;;;2.78;;
72406;SDS011;60396;47.550;18.828;2023-04-03T03:36:44;8.38;;;2.95;;
72406;SDS011;60396;47.550;18.828;2023-04-03T03:39:12;6.90;;;2.50;;
72406;SDS011;60396;47.550;18.828;2023-04-03T03:41:40;7.05;;;2.50;;
72406;SDS011;60396;47.550;18.828;2023-04-03T03:44:09;8.13;;;3.40;;
72406;SDS011;60396;47.550;18.828;2023-04-03T03:46:37;7.30;;;2.95;;
72406;SDS011;60396;47.550;18.828;2023-04-03T03:49:05;8.38;;;2.70;;
72406;SDS011;60396;47.550;18.828;2023-04-03T03:51:33;8.13;;;2.90;;
72406;SDS011;60396;47.550;18.828;2023-04-03T03:54:01;7.53;;;3.03;;
72406;SDS011;60396;47.550;18.828;2023-04-03T03:56:28;7.77;;;2.87;;
72406;SDS011;60396;47.550;18.828;2023-04-03T03:58:56;8.48;;;2.70;;
72406;SDS011;60396;47.550;18.828;2023-04-03T04:01:24;7.85;;;2.92;;
72406;SDS011;60396;47.550;18.828;2023-04-03T04:03:52;8.02;;;2.90;;
72406;SDS011;60396;47.550;18.828;2023-04-03T04:06:22;7.87;;;2.80;;
72406;SDS011;60396;47.550;18.828;2023-04-03T04:08:51;7.70;;;2.87;;
72406;SDS011;60396;47.550;18.828;2023-04-03T04:11:19;8.13;;;2.87;;
72406;SDS011;60396;47.550;18.828;2023-04-03T04:13:49;9.07;;;2.78;;
72406;SDS011;60396;47.550;18.828;2023-04-03T04:16:17;7.93;;;2.80;;
72406;SDS011;60396;47.550;18.828;2023-04-03T04:18:45;7.00;;;2.72;;
72406;SDS011;60396;47.550;18.828;2023-04-03T04:21:13;7.03;;;2.57;;
72406;SDS011;60396;47.550;18.828;2023-04-03T04:23:41;9.55;;;3.22;;
72406;SDS011;60396;47.550;18.828;2023-04-03T04:26:08;6.95;;;3.12;;
72406;SDS011;60396;47.550;18.828;2023-04-03T04:28:37;7.10;;;2.55;;
72406;SDS011;60396;47.550;18.828;2023-04-03T04:31:05;7.65;;;3.35;;
72406;SDS011;60396;47.550;18.828;2023-04-03T04:33:33;7.77;;;2.87;;
72406;SDS011;60396;47.550;18.828;2023-04-03T04:36:01;7.78;;;2.70;;
72406;SDS011;60396;47.550;18.828;2023-04-03T04:38:29;7.65;;;2.97;;
72406;SDS011;60396;47.550;18.828;2023-04-03T04:40:57;8.27;;;2.42;;
72406;SDS011;60396;47.550;18.828;2023-04-03T04:43:25;7.90;;;2.83;;
72406;SDS011;60396;47.550;18.828;2023-04-03T04:46:00;7.73;;;2.67;;
72406;SDS011;60396;47.550;18.828;2023-04-03T04:48:32;6.87;;;2.50;;
72406;SDS011;60396;47.550;18.828;2023-04-03T04:51:01;8.13;;;2.80;;
72406;SDS011;60396;47.550;18.828;2023-04-03T04:53:29;6.68;;;2.55;;
72406;SDS011;60396;47.550;18.828;2023-04-03T04:55:57;6.65;;;2.70;;
72406;SDS011;60396;47.550;18.828;2023-04-03T04:58:25;6.33;;;2.10;;
72406;SDS011;60396;47.550;18.828;2023-04-03T05:01:03;7.20;;;2.37;;
72406;SDS011;60396;47.550;18.828;2023-04-03T05:03:35;7.40;;;2.90;;
72406;SDS011;60396;47.550;18.828;2023-04-03T05:06:05;7.97;;;2.50;;
72406;SDS011;60396;47.550;18.828;2023-04-03T05:08:33;6.80;;;2.60;;
72406;SDS011;60396;47.550;18.828;2023-04-03T05:11:02;11.20;;;2.67;;
72406;SDS011;60396;47.550;18.828;2023-04-03T05:13:30;8.05;;;2.85;;
72406;SDS011;60396;47.550;18.828;2023-04-03T05:15:58;7.53;;;2.70;;
72406;SDS011;60396;47.550;18.828;2023-04-03T05:18:27;6.82;;;2.60;;
72406;SDS011;60396;47.550;18.828;2023-04-03T05:20:55;6.47;;;2.35;;
72406;SDS011;60396;47.550;18.828;2023-04-03T05:23:24;7.00;;;2.40;;
72406;SDS011;60396;47.550;18.828;2023-04-03T05:25:52;8.05;;;2.70;;
72406;SDS011;60396;47.550;18.828;2023-04-03T05:28:20;7.20;;;2.70;;
72406;SDS011;60396;47.550;18.828;2023-04-03T05:30:55;6.72;;;2.47;;
72406;SDS011;60396;47.550;18.828;2023-04-03T05:33:25;7.00;;;2.70;;
72406;SDS011;60396;47.550;18.828;2023-04-03T05:35:54;6.73;;;2.63;;
72406;SDS011;60396;47.550;18.828;2023-04-03T05:38:23;6.82;;;2.42;;
72406;SDS011;60396;47.550;18.828;2023-04-03T05:40:51;8.13;;;2.47;;
72406;SDS011;60396;47.550;18.828;2023-04-03T05:43:19;6.65;;;2.28;;
72406;SDS011;60396;47.550;18.828;2023-04-03T05:45:47;7.75;;;2.20;;
72406;SDS011;60396;47.550;18.828;2023-04-03T05:48:16;7.30;;;2.50;;
72406;SDS011;60396;47.550;18.828;2023-04-03T05:50:43;8.07;;;2.60;;
72406;SDS011;60396;47.550;18.828;2023-04-03T05:53:16;9.73;;;2.87;;
72406;SDS011;60396;47.550;18.828;2023-04-03T05:55:47;6.68;;;2.42;;
72406;SDS011;60396;47.550;18.828;2023-04-03T05:58:15;7.03;;;2.45;;
72406;SDS011;60396;47.550;18.828;2023-04-03T06:00:44;7.37;;;2.37;;
72406;SDS011;60396;47.550;18.828;2023-04-03T06:03:12;6.60;;;2.62;;
72406;SDS011;60396;47.550;18.828;2023-04-03T06:05:40;6.37;;;2.15;;
72406;SDS011;60396;47.550;18.828;2023-04-03T06:08:10;7.75;;;2.72;;
72406;SDS011;60396;47.550;18.828;2023-04-03T06:10:38;6.72;;;2.17;;
72406;SDS011;60396;47.550;18.828;2023-04-03T06:13:07;6.73;;;2.33;;
72406;SDS011;60396;47.550;18.828;2023-04-03T06:15:35;6.93;;;2.17;;
72406;SDS011;60396;47.550;18.828;2023-04-03T06:18:02;6.65;;;2.28;;
72406;SDS011;60396;47.550;18.828;2023-04-03T06:20:31;7.55;;;2.28;;
72406;SDS011;60396;47.550;18.828;2023-04-03T06:22:58;6.75;;;2.30;;
72406;SDS011;60396;47.550;18.828;2023-04-03T06:25:27;7.57;;;2.50;;
72406;SDS011;60396;47.550;18.828;2023-04-03T06:27:54;7.18;;;2.25;;
72406;SDS011;60396;47.550;18.828;2023-04-03T06:30:23;7.97;;;2.28;;
72406;SDS011;60396;47.550;18.828;2023-04-03T06:32:51;6.00;;;2.22;;
72406;SDS011;60396;47.550;18.828;2023-04-03T06:35:19;7.95;;;2.90;;
72406;SDS011;60396;47.550;18.828;2023-04-03T06:37:48;6.37;;;2.37;;
72406;SDS011;60396;47.550;18.828;2023-04-03T06:40:18;6.90;;;2.55;;
72406;SDS011;60396;47.550;18.828;2023-04-03T06:42:48;6.97;;;2.53;;
72406;SDS011;60396;47.550;18.828;2023-04-03T06:45:17;6.68;;;2.47;;
72406;SDS011;60396;47.550;18.828;2023-04-03T06:47:44;6.50;;;2.33;;
72406;SDS011;60396;47.550;18.828;2023-04-03T06:50:12;6.43;;;2.10;;
72406;SDS011;60396;47.550;18.828;2023-04-03T06:52:42;5.93;;;2.05;;
72406;SDS011;60396;47.550;18.828;2023-04-03T06:55:10;9.23;;;2.47;;
72406;SDS011;60396;47.550;18.828;2023-04-03T06:57:37;6.32;;;2.05;;
72406;SDS011;60396;47.550;18.828;2023-04-03T07:00:06;5.87;;;1.75;;
72406;SDS011;60396;47.550;18.828;2023-04-03T07:02:34;5.70;;;1.90;;
72406;SDS011;60396;47.550;18.828;2023-04-03T07:05:02;5.43;;;1.85;;
72406;SDS011;60396;47.550;18.828;2023-04-03T07:07:30;5.85;;;1.77;;
72406;SDS011;60396;47.550;18.828;2023-04-03T07:09:58;5.30;;;1.70;;
72406;SDS011;60396;47.550;18.828;2023-04-03T07:12:25;5.47;;;1.87;;
72406;SDS011;60396;47.550;18.828;2023-04-03T07:14:54;5.67;;;1.73;;
72406;SDS011;60396;47.550;18.828;2023-04-03T07:17:21;5.00;;;1.15;;
72406;SDS011;60396;47.550;18.828;2023-04-03T07:19:49;5.85;;;1.83;;
72406;SDS011;60396;47.550;18.828;2023-04-03T07:22:17;5.07;;;1.48;;
72406;SDS011;60396;47.550;18.828;2023-04-03T07:24:45;6.03;;;1.52;;
72406;SDS011;60396;47.550;18.828;2023-04-03T07:27:13;6.40;;;1.27;;
72406;SDS011;60396;47.550;18.828;2023-04-03T07:29:41;6.00;;;1.60;;
72406;SDS011;60396;47.550;18.828;2023-04-03T07:32:10;4.78;;;1.37;;
72406;SDS011;60396;47.550;18.828;2023-04-03T07:34:38;5.50;;;1.20;;
72406;SDS011;60396;47.550;18.828;2023-04-03T07:37:06;4.32;;;1.23;;
72406;SDS011;60396;47.550;18.828;2023-04-03T07:39:34;4.27;;;1.23;;
72406;SDS011;60396;47.550;18.828;2023-04-03T07:42:02;4.47;;;1.50;;
72406;SDS011;60396;47.550;18.828;2023-04-03T07:44:30;4.62;;;1.20;;
72406;SDS011;60396;47.550;18.828;2023-04-03T07:46:58;3.53;;;0.90;;
72406;SDS011;60396;47.550;18.828;2023-04-03T07:49:27;5.37;;;1.20;;
72406;SDS011;60396;47.550;18.828;2023-04-03T07:51:54;4.63;;;0.90;;
72406;SDS011;60396;47.550;18.828;2023-04-03T07:54:25;5.40;;;1.05;;
72406;SDS011;60396;47.550;18.828;2023-04-03T07:56:53;4.47;;;1.02;;
72406;SDS011;60396;47.550;18.828;2023-04-03T07:59:21;4.18;;;1.17;;
72406;SDS011;60396;47.550;18.828;2023-04-03T08:01:48;3.22;;;0.98;;
72406;SDS011;60396;47.550;18.828;2023-04-03T08:04:16;4.37;;;1.00;;
72406;SDS011;60396;47.550;18.828;2023-04-03T08:06:44;3.10;;;0.90;;
72406;SDS011;60396;47.550;18.828;2023-04-03T08:09:14;3.22;;;0.90;;
72406;SDS011;60396;47.550;18.828;2023-04-03T08:11:43;3.60;;;0.77;;
72406;SDS011;60396;47.550;18.828;2023-04-03T08:14:12;4.18;;;0.90;;
72406;SDS011;60396;47.550;18.828;2023-04-03T08:16:44;4.53;;;1.13;;
72406;SDS011;60396;47.550;18.828;2023-04-03T08:19:14;3.78;;;0.80;;
72406;SDS011;60396;47.550;18.828;2023-04-03T08:21:53;3.62;;;0.82;;
72406;SDS011;60396;47.550;18.828;2023-04-03T08:24:22;3.80;;;0.80;;
72406;SDS011;60396;47.550;18.828;2023-04-03T08:26:49;3.90;;;0.98;;
72406;SDS011;60396;47.550;18.828;2023-04-03T08:29:17;4.80;;;0.73;;
72406;SDS011;60396;47.550;18.828;2023-04-03T08:31:45;5.80;;;1.08;;
72406;SDS011;60396;47.550;18.828;2023-04-03T08:34:13;4.25;;;1.05;;
72406;SDS011;60396;47.550;18.828;2023-04-03T08:36:42;3.35;;;0.70;;
72406;SDS011;60396;47.550;18.828;2023-04-03T08:39:10;3.58;;;0.85;;
72406;SDS011;60396;47.550;18.828;2023-04-03T08:41:42;3.73;;;0.70;;
72406;SDS011;60396;47.550;18.828;2023-04-03T08:44:15;3.92;;;0.77;;
72406;SDS011;60396;47.550;18.828;2023-04-03T08:49:31;4.12;;;0.82;;
72406;SDS011;60396;47.550;18.828;2023-04-03T08:52:02;3.33;;;0.60;;
72406;SDS011;60396;47.550;18.828;2023-04-03T08:54:34;3.17;;;0.63;;
72406;SDS011;60396;47.550;18.828;2023-04-03T08:57:05;4.30;;;0.40;;
72406;SDS011;60396;47.550;18.828;2023-04-03T08:59:36;2.20;;;0.50;;
72406;SDS011;60396;47.550;18.828;2023-04-03T09:02:25;2.67;;;0.50;;
72406;SDS011;60396;47.550;18.828;2023-04-03T09:05:01;2.92;;;0.57;;
72406;SDS011;60396;47.550;18.828;2023-04-03T09:07:37;3.77;;;0.60;;
72406;SDS011;60396;47.550;18.828;2023-04-03T09:10:10;3.55;;;0.75;;
72406;SDS011;60396;47.550;18.828;2023-04-03T09:12:44;2.75;;;0.55;;
72406;SDS011;60396;47.550;18.828;2023-04-03T09:15:24;1.60;;;0.40;;
72406;SDS011;60396;47.550;18.828;2023-04-03T09:18:20;2.17;;;0.40;;
72406;SDS011;60396;47.550;18.828;2023-04-03T09:26:16;2.97;;;0.70;;
72406;SDS011;60396;47.550;18.828;2023-04-03T09:28:45;2.33;;;0.60;;
72406;SDS011;60396;47.550;18.828;2023-04-03T09:31:19;2.80;;;0.60;;
72406;SDS011;60396;47.550;18.828;2023-04-03T09:34:17;2.80;;;0.53;;
72406;SDS011;60396;47.550;18.828;2023-04-03T09:36:49;3.83;;;0.50;;
72406;SDS011;60396;47.550;18.828;2023-04-03T09:39:20;1.90;;;0.50;;
72406;SDS011;60396;47.550;18.828;2023-04-03T09:44:27;4.70;;;0.50;;
72406;SDS011;60396;47.550;18.828;2023-04-03T09:46:59;2.67;;;0.60;;
72406;SDS011;60396;47.550;18.828;2023-04-03T09:49:27;3.47;;;0.62;;
72406;SDS011;60396;47.550;18.828;2023-04-03T09:51:55;2.62;;;0.50;;
72406;SDS011;60396;47.550;18.828;2023-04-03T09:57:08;2.75;;;0.57;;
72406;SDS011;60396;47.550;18.828;2023-04-03T09:59:42;2.83;;;0.50;;
72406;SDS011;60396;47.550;18.828;2023-04-03T10:04:43;2.47;;;0.60;;
72406;SDS011;60396;47.550;18.828;2023-04-03T10:13:02;2.63;;;0.50;;
72406;SDS011;60396;47.550;18.828;2023-04-03T10:15:44;3.17;;;0.62;;
72406;SDS011;60396;47.550;18.828;2023-04-03T10:18:24;2.05;;;0.50;;
72406;SDS011;60396;47.550;18.828;2023-04-03T10:20:57;2.50;;;0.50;;
72406;SDS011;60396;47.550;18.828;2023-04-03T10:23:45;4.60;;;0.70;;
72406;SDS011;60396;47.550;18.828;2023-04-03T10:35:10;3.62;;;0.68;;
72406;SDS011;60396;47.550;18.828;2023-04-03T10:40:29;3.53;;;0.70;;
72406;SDS011;60396;47.550;18.828;2023-04-03T10:48:54;3.17;;;0.70;;
72406;SDS011;60396;47.550;18.828;2023-04-03T10:51:42;4.57;;;0.90;;
72406;SDS011;60396;47.550;18.828;2023-04-03T10:56:50;3.50;;;0.50;;
72406;SDS011;60396;47.550;18.828;2023-04-03T11:02:28;2.47;;;0.50;;
72406;SDS011;60396;47.550;18.828;2023-04-03T11:08:02;2.43;;;0.50;;
72406;SDS011;60396;47.550;18.828;2023-04-03T11:10:53;2.53;;;0.50;;
72406;SDS011;60396;47.550;18.828;2023-04-03T11:13:21;3.35;;;0.50;;
72406;SDS011;60396;47.550;18.828;2023-04-03T11:15:52;3.72;;;0.50;;
72406;SDS011;60396;47.550;18.828;2023-04-03T11:18:22;2.87;;;0.50;;
72406;SDS011;60396;47.550;18.828;2023-04-03T11:21:03;2.17;;;0.33;;
72406;SDS011;60396;47.550;18.828;2023-04-03T11:23:36;3.55;;;0.57;;
72406;SDS011;60396;47.550;18.828;2023-04-03T11:26:17;4.22;;;0.70;;
72406;SDS011;60396;47.550;18.828;2023-04-03T11:28:52;4.47;;;0.60;;
72406;SDS011;60396;47.550;18.828;2023-04-03T11:34:35;3.93;;;0.80;;
72406;SDS011;60396;47.550;18.828;2023-04-03T11:37:13;3.47;;;0.60;;
72406;SDS011;60396;47.550;18.828;2023-04-03T11:39:51;3.37;;;0.80;;
72406;SDS011;60396;47.550;18.828;2023-04-03T11:47:56;3.77;;;1.00;;
72406;SDS011;60396;47.550;18.828;2023-04-03T11:53:42;3.55;;;1.00;;
72406;SDS011;60396;47.550;18.828;2023-04-03T12:01:45;2.63;;;0.70;;
72406;SDS011;60396;47.550;18.828;2023-04-03T12:04:17;2.97;;;0.75;;
72406;SDS011;60396;47.550;18.828;2023-04-03T12:09:23;2.60;;;0.70;;
72406;SDS011;60396;47.550;18.828;2023-04-03T12:11:52;3.85;;;0.90;;
72406;SDS011;60396;47.550;18.828;2023-04-03T12:14:21;2.87;;;0.77;;
72406;SDS011;60396;47.550;18.828;2023-04-03T12:16:50;4.18;;;0.90;;
72406;SDS011;60396;47.550;18.828;2023-04-03T12:24:28;3.33;;;0.85;;
72406;SDS011;60396;47.550;18.828;2023-04-03T12:29:59;6.18;;;0.70;;
72406;SDS011;60396;47.550;18.828;2023-04-03T12:32:40;4.00;;;0.90;;
72406;SDS011;60396;47.550;18.828;2023-04-03T12:37:43;6.57;;;0.77;;
72406;SDS011;60396;47.550;18.828;2023-04-03T12:40:41;3.30;;;0.80;;
72406;SDS011;60396;47.550;18.828;2023-04-03T12:48:46;3.62;;;0.95;;
72406;SDS011;60396;47.550;18.828;2023-04-03T12:54:12;3.37;;;0.70;;
72406;SDS011;60396;47.550;18.828;2023-04-03T12:56:42;4.95;;;0.82;;
72406;SDS011;60396;47.550;18.828;2023-04-03T13:01:53;3.58;;;0.80;;
72406;SDS011;60396;47.550;18.828;2023-04-03T13:04:23;3.30;;;0.90;;
72406;SDS011;60396;47.550;18.828;2023-04-03T13:06:51;3.90;;;0.80;;
72406;SDS011;60396;47.550;18.828;2023-04-03T13:11:55;5.10;;;0.77;;
72406;SDS011;60396;47.550;18.828;2023-04-03T13:14:26;3.20;;;0.80;;
72406;SDS011;60396;47.550;18.828;2023-04-03T13:16:56;3.70;;;0.77;;
72406;SDS011;60396;47.550;18.828;2023-04-03T13:19:26;2.87;;;0.60;;
72406;SDS011;60396;47.550;18.828;2023-04-03T13:21:58;4.45;;;0.90;;
72406;SDS011;60396;47.550;18.828;2023-04-03T13:24:29;4.53;;;0.70;;
72406;SDS011;60396;47.550;18.828;2023-04-03T13:27:01;3.45;;;0.82;;
72406;SDS011;60396;47.550;18.828;2023-04-03T13:29:30;3.72;;;1.00;;
72406;SDS011;60396;47.550;18.828;2023-04-03T13:32:00;3.20;;;0.73;;
72406;SDS011;60396;47.550;18.828;2023-04-03T13:34:35;3.53;;;0.90;;
72406;SDS011;60396;47.550;18.828;2023-04-03T13:37:18;3.70;;;0.90;;
72406;SDS011;60396;47.550;18.828;2023-04-03T13:40:02;4.87;;;0.85;;
72406;SDS011;60396;47.550;18.828;2023-04-03T13:42:39;3.30;;;0.60;;
72406;SDS011;60396;47.550;18.828;2023-04-03T13:45:22;4.57;;;1.07;;
72406;SDS011;60396;47.550;18.828;2023-04-03T13:48:15;3.97;;;1.17;;
72406;SDS011;60396;47.550;18.828;2023-04-03T13:51:01;4.15;;;1.25;;
72406;SDS011;60396;47.550;18.828;2023-04-03T13:53:31;6.35;;;1.40;;
72406;SDS011;60396;47.550;18.828;2023-04-03T13:58:33;5.20;;;1.40;;
72406;SDS011;60396;47.550;18.828;2023-04-03T14:01:14;3.83;;;1.33;;
72406;SDS011;60396;47.550;18.828;2023-04-03T14:06:23;3.75;;;1.17;;
72406;SDS011;60396;47.550;18.828;2023-04-03T14:08:51;4.50;;;1.20;;
72406;SDS011;60396;47.550;18.828;2023-04-03T14:11:20;4.63;;;1.00;;
72406;SDS011;60396;47.550;18.828;2023-04-03T14:13:51;4.93;;;0.95;;
72406;SDS011;60396;47.550;18.828;2023-04-03T14:16:22;3.85;;;1.05;;
72406;SDS011;60396;47.550;18.828;2023-04-03T14:18:52;4.20;;;1.30;;
72406;SDS011;60396;47.550;18.828;2023-04-03T14:21:21;7.55;;;1.40;;
72406;SDS011;60396;47.550;18.828;2023-04-03T14:23:48;3.87;;;0.87;;
72406;SDS011;60396;47.550;18.828;2023-04-03T14:26:17;3.97;;;0.90;;
72406;SDS011;60396;47.550;18.828;2023-04-03T14:28:51;4.28;;;0.80;;
72406;SDS011;60396;47.550;18.828;2023-04-03T14:31:20;3.47;;;0.60;;
72406;SDS011;60396;47.550;18.828;2023-04-03T14:33:49;7.30;;;1.00;;
72406;SDS011;60396;47.550;18.828;2023-04-03T14:36:18;4.33;;;1.10;;
72406;SDS011;60396;47.550;18.828;2023-04-03T14:38:48;4.22;;;1.00;;
72406;SDS011;60396;47.550;18.828;2023-04-03T14:41:18;3.78;;;1.10;;
72406;SDS011;60396;47.550;18.828;2023-04-03T14:43:47;3.50;;;1.00;;
72406;SDS011;60396;47.550;18.828;2023-04-03T14:49:27;4.13;;;1.00;;
72406;SDS011;60396;47.550;18.828;2023-04-03T14:51:57;7.10;;;1.60;;
72406;SDS011;60396;47.550;18.828;2023-04-03T14:54:25;7.37;;;1.40;;
72406;SDS011;60396;47.550;18.828;2023-04-03T14:56:55;6.20;;;1.73;;
72406;SDS011;60396;47.550;18.828;2023-04-03T14:59:26;9.93;;;1.17;;
72406;SDS011;60396;47.550;18.828;2023-04-03T15:01:54;4.13;;;1.13;;
72406;SDS011;60396;47.550;18.828;2023-04-03T15:04:21;6.53;;;1.00;;
72406;SDS011;60396;47.550;18.828;2023-04-03T15:06:52;3.78;;;1.02;;
72406;SDS011;60396;47.550;18.828;2023-04-03T15:09:24;3.83;;;0.90;;
72406;SDS011;60396;47.550;18.828;2023-04-03T15:11:53;4.93;;;1.00;;
72406;SDS011;60396;47.550;18.828;2023-04-03T15:14:22;5.50;;;1.07;;
72406;SDS011;60396;47.550;18.828;2023-04-03T15:17:04;4.97;;;0.90;;
72406;SDS011;60396;47.550;18.828;2023-04-03T15:19:38;3.80;;;0.90;;
72406;SDS011;60396;47.550;18.828;2023-04-03T15:22:06;3.67;;;0.90;;
72406;SDS011;60396;47.550;18.828;2023-04-03T15:24:39;8.55;;;2.67;;
72406;SDS011;60396;47.550;18.828;2023-04-03T15:27:08;11.63;;;2.50;;
72406;SDS011;60396;47.550;18.828;2023-04-03T15:29:36;5.53;;;1.35;;
72406;SDS011;60396;47.550;18.828;2023-04-03T15:32:04;4.00;;;1.17;;
72406;SDS011;60396;47.550;18.828;2023-04-03T15:34:32;5.53;;;1.12;;
72406;SDS011;60396;47.550;18.828;2023-04-03T15:37:00;6.20;;;1.00;;
72406;SDS011;60396;47.550;18.828;2023-04-03T15:39:28;5.50;;;1.00;;
72406;SDS011;60396;47.550;18.828;2023-04-03T15:41:56;5.22;;;1.10;;
72406;SDS011;60396;47.550;18.828;2023-04-03T15:44:27;6.22;;;1.20;;
72406;SDS011;60396;47.550;18.828;2023-04-03T15:46:54;4.60;;;1.50;;
72406;SDS011;60396;47.550;18.828;2023-04-03T15:49:22;5.82;;;1.30;;
72406;SDS011;60396;47.550;18.828;2023-04-03T15:51:50;5.23;;;1.27;;
72406;SDS011;60396;47.550;18.828;2023-04-03T15:54:17;7.03;;;1.87;;
72406;SDS011;60396;47.550;18.828;2023-04-03T15:56:47;7.87;;;2.70;;
72406;SDS011;60396;47.550;18.828;2023-04-03T15:59:16;7.65;;;1.50;;
72406;SDS011;60396;47.550;18.828;2023-04-03T16:01:44;7.70;;;1.58;;
72406;SDS011;60396;47.550;18.828;2023-04-03T16:04:12;6.33;;;1.37;;
72406;SDS011;60396;47.550;18.828;2023-04-03T16:06:42;6.80;;;1.23;;
72406;SDS011;60396;47.550;18.828;2023-04-03T16:09:12;7.70;;;1.90;;
72406;SDS011;60396;47.550;18.828;2023-04-03T16:11:40;8.30;;;1.92;;
72406;SDS011;60396;47.550;18.828;2023-04-03T16:14:08;6.60;;;1.40;;
72406;SDS011;60396;47.550;18.828;2023-04-03T16:16:36;6.70;;;1.40;;
72406;SDS011;60396;47.550;18.828;2023-04-03T16:19:04;5.32;;;1.27;;
72406;SDS011;60396;47.550;18.828;2023-04-03T16:21:33;6.18;;;1.42;;
72406;SDS011;60396;47.550;18.828;2023-04-03T16:24:01;5.68;;;1.23;;
72406;SDS011;60396;47.550;18.828;2023-04-03T16:26:29;9.55;;;1.20;;
72406;SDS011;60396;47.550;18.828;2023-04-03T16:28:56;7.10;;;1.33;;
72406;SDS011;60396;47.550;18.828;2023-04-03T16:31:24;7.43;;;1.23;;
72406;SDS011;60396;47.550;18.828;2023-04-03T16:33:54;5.85;;;1.25;;
72406;SDS011;60396;47.550;18.828;2023-04-03T16:36:23;5.50;;;1.08;;